Date,TemperatureHighF,TemperatureAvgF,TemperatureLowF,DewpointHighF,DewpointAvgF,DewpointLowF,HumidityHigh,HumidityAvg,HumidityLow,PressureMaxIn,PressureMinIn,WindSpeedMaxMPH,WindSpeedAvgMPH,GustSpeedMaxMPH,PrecipitationSumIn
2013-1-1,23.4,20.9,19.4,21.7,19.1,17.5,100,92,92,30.68,30.54,7,1,7,0.00
2013-1-2,23.3,17.2,8.1,21.6,14.4,4.8,93,89,84,30.65,30.58,7,3,7,0.00
2013-1-3,33.2,15.7,5.6,21.8,10.6,2.3,90,80,59,30.60,30.41,12,4,12,0.00
2013-1-4,30.5,25.3,18.2,24.8,19.9,10.4,91,80,62,30.52,30.42,13,4,13,0.00
2013-1-5,33.0,25.8,20.4,24.6,19.6,13.5,86,77,69,30.43,30.26,13,4,13,0.00
2013-1-6,32.7,26.6,18.8,26.3,22.5,16.0,93,85,75,30.27,30.17,12,4,12,0.01
2013-1-7,40.9,33.4,22.5,34.0,28.2,17.3,95,82,64,30.20,29.94,33,14,33,0.05
2013-1-8,41.7,36.1,31.7,37.0,31.0,27.8,95,82,70,30.18,30.02,35,12,35,0.04
2013-1-9,42.2,36.6,29.3,34.7,32.5,27.8,94,85,72,30.04,29.69,47,9,47,0.11
2013-1-10,29.3,24.6,19.3,27.7,22.6,16.3,94,92,88,29.95,29.82,26,5,26,0.00
2013-1-11,34.4,19.8,15.8,30.9,17.3,13.5,93,90,72,30.35,29.95,20,4,20,0.10
2013-1-12,22.1,15.1,7.9,17.9,12.3,4.7,92,89,82,30.44,30.30,15,4,15,0.00
2013-1-13,26.4,13.3,1.7,24.7,10.5,-1.7,94,89,73,30.60,30.41,5,1,5,0.00
2013-1-14,21.3,17.3,12.6,19.4,14.9,9.7,100,90,86,30.60,30.46,9,3,9,0.00
2013-1-15,33.9,21.9,14.4,29.8,19.1,12.1,93,89,79,30.73,30.59,9,3,9,0.01
2013-1-16,32.1,21.4,12.3,26.6,17.1,9.9,92,84,72,30.74,30.63,6,3,6,0.06
2013-1-17,36.2,22.9,14.0,27.0,16.6,9.2,88,76,65,30.69,30.44,12,4,12,0.03
2013-1-18,34.4,25.7,19.7,23.7,17.5,11.2,82,71,57,30.47,30.34,10,3,10,0.01
2013-1-19,45.5,25.6,15.1,26.0,14.7,8.0,81,64,39,30.56,30.42,9,2,9,0.05
2013-1-20,45.4,24.3,13.5,27.2,14.5,6.0,79,66,46,30.64,30.45,7,2,7,0.00
2013-1-21,49.2,24.3,14.0,26.5,14.3,7.4,87,66,36,30.50,30.30,6,2,6,0.00
2013-1-22,38.7,23.6,12.3,24.1,14.3,4.2,81,68,51,30.43,30.18,12,3,12,0.00
2013-1-23,42.4,31.8,23.3,30.1,22.3,14.2,87,68,44,30.20,29.99,17,7,17,0.03
2013-1-24,39.9,33.8,28.5,33.2,29.2,24.9,92,83,64,30.29,30.05,21,6,21,0.00
2013-1-25,41.2,36.4,33.8,37.6,33.8,30.8,95,90,74,30.21,29.96,22,5,22,0.25
2013-1-26,36.3,31.4,23.6,35.0,30.0,21.8,100,95,92,30.03,29.93,13,3,13,0.07
2013-1-27,33.7,27.1,20.7,29.5,24.7,19.0,95,91,77,30.10,30.01,14,3,14,0.02
2013-1-28,30.8,27.6,25.0,27.7,24.8,19.4,95,89,77,30.04,29.90,24,10,24,0.01
2013-1-29,32.0,30.1,28.6,30.9,28.8,27.4,96,95,92,30.28,29.91,23,8,23,0.05
2013-1-30,44.6,36.8,31.9,37.8,33.4,30.9,97,88,76,30.29,30.18,20,7,20,0.16
2013-1-31,40.5,37.6,35.3,36.4,34.0,32.1,94,87,80,30.33,30.22,17,5,17,0.01
2013-2-1,45.5,35.8,28.4,40.1,32.0,26.0,94,86,67,30.50,30.23,17,5,17,0.01
2013-2-2,37.5,31.1,22.1,31.6,27.0,19.9,94,85,74,30.59,30.32,15,8,15,0.00
2013-2-3,42.2,32.8,25.2,32.2,26.8,19.6,88,79,62,30.34,30.16,15,3,15,0.00
2013-2-4,51.9,36.3,30.6,37.0,30.3,27.5,90,79,53,30.19,30.01,14,4,14,0.00
2013-2-5,57.6,38.1,31.1,38.7,31.5,26.5,92,78,44,30.02,29.81,20,6,20,0.02
2013-2-6,43.6,35.7,30.8,30.6,27.5,24.5,83,72,58,30.12,29.94,20,8,20,0.01
2013-2-7,39.9,31.7,27.7,32.4,26.9,23.5,94,83,66,30.08,29.95,16,5,16,0.01
2013-2-8,32.6,28.8,26.0,31.1,27.3,24.5,95,94,91,30.18,30.07,14,4,14,0.06
2013-2-9,36.2,28.2,23.2,31.2,25.9,21.4,100,91,80,30.25,30.10,13,2,13,0.00
2013-2-10,34.4,27.4,21.2,30.1,24.9,19.4,94,90,82,30.33,30.24,6,1,6,0.02
2013-2-11,40.4,27.6,19.7,29.5,23.3,16.6,93,84,64,30.34,30.24,10,4,10,0.00
2013-2-12,46.7,35.7,29.3,35.0,30.0,26.3,92,80,60,30.41,30.19,28,6,28,0.00
2013-2-13,43.1,37.8,31.4,35.2,31.7,27.8,87,79,65,30.39,30.19,29,7,29,0.00
2013-2-14,44.1,33.3,25.0,32.6,28.1,21.6,92,81,62,30.58,30.39,13,3,13,0.00
2013-2-15,52.7,36.1,25.6,34.9,29.5,22.9,91,78,48,30.61,30.30,12,3,12,0.00
2013-2-16,50.4,37.9,31.7,35.5,30.4,25.4,88,75,54,30.30,29.98,39,9,39,0.16
2013-2-17,38.2,32.1,24.9,29.4,26.1,21.5,90,78,67,30.19,30.00,22,6,22,0.01
2013-2-18,36.5,29.7,23.4,27.4,23.6,19.5,90,78,60,30.18,29.82,20,9,20,0.01
2013-2-19,37.6,30.3,28.3,33.2,27.4,23.8,94,89,73,29.93,29.74,14,3,14,0.02
2013-2-20,42.2,30.0,25.6,29.4,25.0,20.9,94,82,51,30.08,29.92,17,4,17,0.00
2013-2-21,33.3,28.3,22.9,29.5,24.4,18.0,95,85,71,30.12,30.04,18,5,18,0.04
2013-2-22,36.7,31.6,26.8,33.1,28.6,24.0,100,89,77,30.10,29.76,33,10,33,0.08
2013-2-23,37.4,29.8,25.3,29.4,23.3,17.5,92,77,63,30.31,29.80,33,10,33,0.00
2013-2-24,38.2,27.1,15.5,25.2,21.0,12.7,90,78,57,30.44,30.19,14,4,14,0.04
2013-2-25,36.1,31.1,24.4,28.7,24.2,17.9,99,76,65,30.21,30.03,35,13,35,0.04
2013-2-26,38.7,29.6,25.0,26.1,21.2,17.8,79,71,51,30.40,30.21,20,6,20,0.04
2013-2-27,43.4,34.5,26.3,26.7,21.5,17.0,72,59,46,30.38,30.26,30,8,30,0.00
2013-2-28,35.9,33.3,30.3,34.2,31.4,24.7,100,93,64,30.46,30.32,20,6,20,0.26
2013-3-1,48.7,42.8,35.1,42.7,36.7,33.1,96,79,67,30.47,30.33,26,7,26,0.00
2013-3-2,43.6,39.5,35.1,40.5,36.0,31.5,97,88,75,30.34,29.97,24,5,24,0.13
2013-3-3,41.4,31.6,26.8,36.4,24.1,18.0,94,74,60,30.24,29.95,31,12,31,0.14
2013-3-4,36.4,29.9,20.1,25.4,19.8,15.2,82,66,52,30.36,30.14,17,6,17,0.02
2013-3-5,39.8,32.9,23.9,29.8,23.5,14.0,78,68,54,30.15,29.80,17,7,17,0.00
2013-3-6,48.7,36.8,32.0,39.2,31.7,25.3,95,82,56,29.92,29.58,31,9,31,0.09
2013-3-7,45.7,36.1,28.9,33.3,26.8,23.1,83,69,51,30.10,29.92,20,5,20,0.26
2013-3-8,49.4,34.7,24.2,34.2,26.5,20.5,92,73,49,30.16,30.01,12,3,12,0.00
2013-3-9,47.9,36.4,30.1,35.3,29.3,25.4,84,76,58,30.48,30.14,18,4,18,0.00
2013-3-10,46.6,35.5,28.8,33.7,28.9,22.8,95,78,52,30.49,30.31,21,4,21,0.07
2013-3-11,48.5,37.6,31.3,37.9,33.2,29.1,96,84,62,30.37,30.26,16,4,16,0.00
2013-3-12,50.2,41.7,34.1,42.6,36.8,29.3,94,83,65,30.28,30.12,26,7,26,0.02
2013-3-13,57.7,46.4,40.2,45.2,39.8,33.3,89,78,41,30.24,30.11,12,4,12,0.00
2013-3-14,59.7,49.4,41.1,43.5,37.8,34.4,79,65,49,30.16,30.00,15,4,15,0.00
2013-3-15,58.0,47.3,39.1,43.0,37.4,34.6,85,69,50,30.15,30.03,18,4,18,0.00
2013-3-16,47.9,40.5,29.8,39.2,34.2,27.9,93,78,64,30.08,29.73,41,6,41,0.12
2013-3-17,35.7,30.6,26.5,28.7,23.1,18.8,93,74,56,30.15,29.79,36,17,36,0.03
2013-3-18,37.7,31.8,26.2,30.0,23.9,17.8,93,74,50,30.24,30.07,39,12,39,0.04
2013-3-19,45.9,35.8,24.2,30.5,24.2,17.2,79,63,43,30.31,29.86,22,9,22,0.05
2013-3-20,54.9,41.2,33.5,42.6,33.7,24.9,93,75,58,29.88,29.50,40,13,40,0.31
2013-3-21,35.1,30.1,27.1,27.1,22.6,17.8,91,74,61,30.12,29.82,36,12,36,0.05
2013-3-22,33.9,26.3,17.5,25.7,22.2,14.0,91,84,67,30.35,30.09,21,4,21,0.03
2013-3-23,42.7,26.5,13.4,29.2,20.0,9.9,92,77,47,30.47,30.34,16,3,16,0.04
2013-3-24,37.4,29.8,21.3,26.2,22.0,19.1,92,74,50,30.42,30.23,20,7,20,0.00
2013-3-25,45.6,35.4,24.7,32.4,26.2,20.4,85,70,47,30.23,30.00,15,6,15,0.00
2013-3-26,57.7,43.2,33.0,38.4,32.2,26.8,82,66,45,30.00,29.92,10,2,10,0.00
2013-3-27,57.7,44.5,35.9,42.8,36.9,31.3,86,75,53,30.00,29.91,20,4,20,0.01
2013-3-28,56.9,46.7,35.8,45.8,40.5,32.9,92,80,58,30.08,29.93,10,2,10,0.03
2013-3-29,52.9,45.9,40.3,43.5,40.3,36.3,92,81,64,30.22,30.06,18,4,18,0.00
2013-3-30,56.2,45.8,34.5,45.7,36.4,30.6,92,72,44,30.31,30.12,15,5,15,0.00
2013-3-31,64.3,49.2,35.3,41.4,34.5,25.6,85,60,28,30.13,29.87,13,4,13,0.00
2013-4-1,65.1,51.9,36.6,44.9,38.7,31.4,84,62,46,29.98,29.86,16,4,16,0.00
2013-4-2,64.1,49.2,36.5,47.6,40.5,32.8,91,73,51,30.12,29.95,16,2,16,0.00
2013-4-3,63.0,49.9,38.8,42.7,38.9,33.3,88,68,43,30.13,29.99,20,3,20,0.00
2013-4-4,59.3,48.9,42.4,46.7,41.4,35.6,94,76,52,29.99,29.73,36,8,36,0.14
2013-4-5,54.7,46.2,41.6,46.4,40.6,37.1,93,81,63,29.93,29.82,33,9,33,0.18
2013-4-6,46.8,42.6,38.4,41.7,38.4,33.5,95,86,65,29.97,29.85,24,8,24,0.50
2013-4-7,46.9,40.1,34.4,40.7,33.6,26.0,95,79,52,29.88,29.62,38,13,38,0.16
2013-4-8,46.6,35.5,31.0,37.9,31.9,26.6,94,87,66,30.26,29.80,20,5,20,0.05
2013-4-9,52.1,38.5,28.4,36.3,29.3,22.8,90,71,48,30.38,30.23,12,3,12,0.01
2013-4-10,54.1,45.0,38.8,45.0,37.0,31.7,91,74,63,30.25,29.88,36,12,36,0.07
2013-4-11,46.6,39.7,31.9,35.0,31.2,27.3,85,72,54,30.16,30.05,20,6,20,0.00
2013-4-12,54.8,40.5,31.4,37.3,30.9,22.9,93,71,39,30.14,29.62,29,7,29,0.16
2013-4-13,39.2,35.8,31.9,37.2,27.6,21.3,94,72,56,29.91,29.59,40,19,40,0.28
2013-4-14,43.4,33.3,29.2,35.2,27.8,24.8,92,80,63,29.98,29.88,22,6,22,0.02
2013-4-15,41.9,33.7,27.0,27.7,24.0,18.3,93,69,45,30.07,29.86,23,10,23,0.00
2013-4-16,41.1,31.9,24.4,21.3,16.7,12.9,66,54,36,30.34,30.06,20,10,20,0.00
2013-4-17,47.3,35.3,24.7,24.2,18.5,14.1,72,51,34,30.45,30.34,18,6,18,0.00
2013-4-18,46.0,38.2,28.2,32.8,26.0,14.2,77,62,44,30.42,30.22,15,3,15,0.00
2013-4-19,45.6,42.6,38.8,42.9,39.7,33.1,94,90,79,30.22,29.99,22,7,22,0.22
2013-4-20,49.2,44.1,40.9,41.2,36.3,33.3,87,74,58,30.14,30.00,27,14,27,0.08
2013-4-21,50.9,40.9,32.9,41.2,34.6,30.8,93,78,61,30.20,30.03,22,8,22,0.16
2013-4-22,47.2,35.9,28.2,31.7,25.6,21.0,93,68,43,30.47,30.19,17,6,17,0.03
2013-4-23,53.0,39.0,27.5,31.3,24.4,19.4,84,58,31,30.44,30.24,13,3,13,0.00
2013-4-24,59.9,43.9,30.1,35.2,28.5,22.8,80,57,35,30.35,30.09,20,3,20,0.00
2013-4-25,64.2,54.2,40.9,39.4,33.6,28.3,72,47,33,30.09,29.93,23,6,23,0.00
2013-4-26,69.0,54.6,39.9,43.0,37.1,31.3,72,53,35,30.19,30.06,24,5,24,0.00
2013-4-27,65.6,55.3,45.8,40.6,34.8,31.0,69,47,31,30.12,29.98,40,13,40,0.00
2013-4-28,57.2,49.4,42.4,43.1,37.2,30.1,85,64,44,30.10,29.89,23,8,23,0.00
2013-4-29,48.4,42.9,33.0,40.1,30.9,17.3,88,63,39,30.02,29.75,39,16,39,0.14
2013-4-30,42.9,33.3,26.6,31.2,24.8,17.7,92,72,47,30.43,29.99,30,8,30,0.03
2013-5-1,51.5,38.1,23.5,32.3,23.6,18.5,87,59,31,30.65,30.41,16,3,16,0.03
2013-5-2,65.0,50.5,30.8,36.5,30.8,21.6,75,49,29,30.63,30.27,15,5,15,0.00
2013-5-3,51.5,49.6,46.4,37.9,36.9,35.6,67,62,58,30.17,30.14,12,6,12,0.00
2013-5-4,62.7,52.6,40.1,38.5,35.1,31.5,80,53,32,30.20,30.00,33,16,33,0.00
2013-5-5,69.6,57.2,43.2,43.4,36.5,32.6,68,48,28,30.00,29.77,22,11,22,0.00
2013-5-6,77.0,62.1,46.5,44.5,37.0,32.3,60,41,21,29.82,29.66,21,6,21,0.00
2013-5-7,79.3,65.0,45.1,49.9,41.3,34.7,68,43,27,29.80,29.69,13,4,13,0.00
2013-5-8,78.8,65.1,45.4,51.3,44.3,36.1,72,48,29,29.91,29.78,13,4,13,0.00
2013-5-9,79.4,67.5,49.4,53.1,47.3,42.4,79,50,34,30.01,29.90,17,4,17,0.00
2013-5-10,84.0,67.8,49.3,53.2,43.9,33.1,73,45,18,30.10,29.98,13,4,13,0.00
2013-5-11,82.3,67.2,53.7,54.3,46.3,37.7,65,49,29,30.07,29.95,13,4,13,0.00
2013-5-12,78.8,67.7,55.7,56.7,49.7,44.6,72,54,36,29.96,29.86,17,4,17,0.00
2013-5-13,73.5,57.6,44.5,55.4,47.0,40.0,92,70,46,30.04,29.77,21,5,21,0.07
2013-5-14,59.9,49.2,37.7,43.7,38.2,32.8,83,67,48,30.17,30.02,16,4,16,0.00
2013-5-15,63.5,49.7,34.9,43.0,35.4,29.6,83,60,33,30.09,29.89,14,4,14,0.00
2013-5-16,60.9,50.8,42.7,46.1,40.5,35.1,89,69,48,29.95,29.83,14,3,14,0.00
2013-5-17,65.2,51.9,38.2,48.6,42.3,34.4,89,71,46,29.93,29.81,13,4,13,0.06
2013-5-18,54.7,48.3,43.6,45.2,41.2,38.8,89,77,60,30.13,29.92,12,3,12,0.01
2013-5-19,59.6,50.6,44.1,46.0,41.7,39.0,92,72,54,30.25,30.13,15,3,15,0.00
2013-5-20,66.5,54.2,38.3,46.3,41.4,33.9,88,64,41,30.26,29.86,27,6,27,0.00
2013-5-21,67.3,51.0,39.4,46.9,41.5,37.5,97,72,40,29.86,29.53,26,10,26,0.16
2013-5-22,45.4,38.1,32.4,39.7,34.1,29.9,95,86,55,30.04,29.70,21,6,21,0.08
2013-5-23,58.7,44.1,30.5,42.4,33.7,27.6,91,69,42,30.04,29.92,20,5,20,0.00
2013-5-24,49.4,41.0,33.1,42.1,35.9,28.5,92,82,68,30.09,29.92,22,5,22,0.09
2013-5-25,57.1,45.7,34.4,44.6,37.6,31.8,92,75,52,30.06,29.96,12,3,12,0.00
2013-5-26,62.6,49.4,37.2,49.5,41.0,33.1,86,74,49,29.99,29.87,20,4,20,0.01
2013-5-27,64.4,51.7,46.1,47.6,44.1,35.6,95,78,41,29.94,29.72,24,5,24,0.04
2013-5-28,59.4,50.1,44.2,49.3,44.7,40.6,95,83,59,29.85,29.71,15,4,15,0.00
2013-5-29,55.9,47.0,41.3,49.9,43.1,37.9,93,87,70,29.92,29.65,21,8,21,0.31
2013-5-30,56.0,47.1,37.4,45.9,40.1,35.1,93,77,53,30.16,29.92,16,4,16,0.01
2013-5-31,63.3,51.3,39.7,44.8,38.3,33.3,89,63,34,30.27,30.13,12,3,12,0.00
2013-6-1,66.6,53.4,40.0,48.5,39.9,32.6,78,62,42,30.23,29.91,20,4,20,0.00
2013-6-2,63.9,52.2,41.2,50.4,43.2,36.3,88,72,53,29.95,29.80,21,5,21,0.09
2013-6-3,66.8,55.9,46.9,49.1,42.8,38.2,77,63,42,30.01,29.90,25,6,25,0.00
2013-6-4,73.0,57.7,40.9,51.0,42.1,36.1,84,59,34,30.08,29.98,14,4,14,0.00
2013-6-5,77.0,62.4,44.5,54.0,46.1,39.1,84,58,32,30.02,29.87,21,4,21,0.00
2013-6-6,82.9,66.1,52.0,58.4,50.7,44.1,79,60,34,29.94,29.82,12,4,12,0.00
2013-6-7,78.0,65.5,50.8,57.1,48.9,34.0,83,57,36,29.88,29.75,22,6,22,0.00
2013-6-8,75.3,62.4,49.9,50.6,42.2,37.1,65,49,32,29.97,29.86,20,4,20,0.00
2013-6-9,71.8,62.4,50.4,52.8,44.4,38.3,68,53,35,29.90,29.77,18,6,18,0.00
2013-6-10,73.8,64.4,48.7,48.5,43.2,37.6,68,47,34,29.81,29.64,14,4,14,0.00
2013-6-11,66.0,56.1,46.5,46.5,40.3,35.3,73,56,44,29.99,29.69,18,5,18,0.00
2013-6-12,63.4,53.7,44.4,47.2,40.3,33.1,80,61,48,30.03,29.94,18,5,18,0.00
2013-6-13,62.7,52.8,44.5,46.9,39.7,34.8,80,61,48,30.04,29.96,17,6,17,0.00
2013-6-14,64.7,53.2,43.1,44.2,38.9,35.4,79,60,38,30.15,30.02,17,5,17,0.00
2013-6-15,75.5,58.5,41.6,46.4,39.9,33.9,78,53,27,30.07,29.88,20,5,20,0.00
2013-6-16,81.0,65.5,45.8,48.4,40.8,34.0,66,43,23,29.95,29.79,15,4,15,0.00
2013-6-17,79.1,68.1,56.0,56.0,48.6,41.1,67,50,38,29.91,29.71,22,4,22,0.00
2013-6-18,70.3,57.9,48.9,56.4,48.6,44.2,91,72,54,29.83,29.70,28,9,28,0.01
2013-6-19,49.7,46.7,43.0,48.6,45.1,40.3,96,94,89,29.92,29.72,21,7,21,1.23
2013-6-20,58.9,48.5,44.0,48.2,42.3,38.0,93,80,58,30.06,29.88,34,13,34,0.16
2013-6-21,60.2,48.9,42.5,52.1,45.2,41.2,95,88,67,30.11,30.02,16,4,16,0.12
2013-6-22,65.2,54.4,43.9,50.9,45.5,41.4,94,73,51,30.09,29.89,10,3,10,0.00
2013-6-23,68.0,58.0,45.1,55.0,48.1,40.1,86,71,53,29.90,29.53,12,5,12,0.00
2013-6-24,63.9,54.9,50.8,58.8,52.0,47.4,96,90,68,29.71,29.52,20,4,20,0.45
2013-6-25,64.0,54.3,45.8,56.9,51.0,44.4,96,89,65,29.87,29.70,33,6,33,0.79
2013-6-26,63.9,56.5,50.8,59.3,54.0,49.4,96,92,82,30.08,29.85,15,4,15,0.49
2013-6-27,81.9,64.3,49.6,66.7,57.3,47.8,95,80,51,30.12,30.05,16,5,16,0.00
2013-6-28,86.3,71.0,55.7,68.5,59.5,52.3,91,69,44,30.13,29.92,10,3,10,0.00
2013-6-29,83.3,71.4,59.3,70.5,61.9,55.4,92,73,56,29.96,29.82,22,7,22,0.00
2013-6-30,85.8,73.1,61.2,67.6,58.8,51.6,82,62,36,29.96,29.83,17,3,17,0.00
2013-7-1,93.2,77.2,60.4,72.4,62.8,53.8,83,63,42,29.90,29.73,17,5,17,0.00
2013-7-2,93.3,80.5,67.5,72.0,65.8,60.8,82,63,39,29.89,29.76,12,3,12,0.00
2013-7-3,84.5,73.9,59.4,63.5,58.7,52.2,81,60,41,29.91,29.78,13,4,13,0.00
2013-7-4,80.2,66.6,54.7,57.8,50.5,44.8,82,58,37,29.86,29.74,13,3,13,0.00
2013-7-5,74.7,63.7,50.1,54.3,47.8,41.9,80,57,42,29.84,29.73,16,5,16,0.00
2013-7-6,81.2,62.9,44.9,54.2,46.5,37.9,81,58,29,29.87,29.69,14,3,14,0.00
2013-7-7,83.2,68.1,49.8,55.9,48.7,42.5,85,54,26,29.80,29.67,12,3,12,0.00
2013-7-8,78.7,66.7,54.6,56.6,50.0,42.8,74,56,41,30.01,29.70,18,5,18,0.00
2013-7-9,83.8,67.3,49.2,55.6,49.0,43.3,81,55,31,30.05,29.89,15,4,15,0.00
2013-7-10,88.7,71.3,54.3,61.1,50.2,42.1,70,49,30,29.91,29.68,15,4,15,0.00
2013-7-11,78.3,67.8,52.4,49.3,44.5,39.6,69,44,31,29.81,29.68,15,4,15,0.00
2013-7-12,75.2,62.3,47.5,48.1,39.5,31.8,70,44,31,29.88,29.77,16,5,16,0.00
2013-7-13,74.4,65.6,46.0,46.2,40.9,37.1,72,42,29,30.08,29.99,13,4,13,0.00
2013-7-14,74.7,55.0,43.3,48.1,41.4,36.1,77,61,36,30.06,29.85,12,3,9,0.00
2013-7-15,82.0,67.2,49.6,48.7,44.1,39.0,70,46,27,29.90,29.77,15,4,15,0.00
2013-7-16,87.2,70.4,49.8,62.2,50.8,41.9,76,52,31,29.85,29.68,15,4,15,0.00
2013-7-17,85.8,73.0,57.3,63.6,54.4,45.6,82,55,30,30.01,29.71,33,6,33,0.00
2013-7-18,89.5,70.8,53.1,54.6,47.0,39.7,71,46,24,30.05,29.92,13,4,13,0.00
2013-7-19,89.8,70.1,52.9,52.8,44.1,37.8,65,43,18,29.97,29.80,13,3,13,0.00
2013-7-20,90.3,72.8,52.2,55.1,43.9,34.1,65,39,15,29.86,29.68,17,3,17,0.00
2013-7-21,90.7,71.9,51.6,50.5,41.4,33.9,58,35,17,29.79,29.67,16,4,16,0.00
2013-7-22,88.8,71.7,53.3,52.0,42.1,31.6,58,36,21,29.87,29.70,18,4,18,0.00
2013-7-23,88.9,72.4,53.9,51.1,43.4,37.8,60,38,18,29.94,29.79,22,5,22,0.00
2013-7-24,94.2,77.1,56.3,47.9,41.3,31.3,56,30,12,29.89,29.77,15,3,15,0.00
2013-7-25,93.3,76.0,57.3,50.8,42.4,31.9,58,32,17,29.92,29.82,13,4,13,0.00
2013-7-26,93.3,73.6,50.8,50.1,36.1,25.1,51,28,13,29.99,29.83,13,3,13,0.00
2013-7-27,83.8,71.4,54.6,49.0,39.3,28.0,50,32,22,29.90,29.76,20,4,20,0.00
2013-7-28,82.2,66.5,47.0,46.3,39.8,33.6,63,39,24,29.83,29.71,14,4,14,0.00
2013-7-29,83.5,67.1,47.7,46.6,38.9,33.8,66,38,20,29.86,29.75,20,4,20,0.00
2013-7-30,84.6,69.1,53.1,46.4,40.7,35.2,53,37,23,30.00,29.84,13,3,13,0.00
2013-7-31,88.3,70.6,53.1,50.1,42.4,36.6,54,38,20,30.00,29.78,17,6,17,0.00
2013-8-1,76.4,62.7,52.6,53.6,47.8,41.5,92,61,40,29.91,29.75,32,6,32,0.11
2013-8-2,66.3,57.1,48.8,56.3,52.0,45.8,96,84,65,30.04,29.84,16,4,16,0.06
2013-8-3,73.4,59.8,46.7,56.1,50.9,44.3,95,74,47,30.07,29.97,20,4,20,0.00
2013-8-4,84.2,65.8,48.8,54.7,49.4,44.8,87,60,30,30.01,29.86,15,4,15,0.00
2013-8-5,85.8,69.0,51.9,54.5,47.7,42.0,79,50,27,29.90,29.80,22,4,22,0.00
2013-8-6,89.0,71.8,53.1,52.9,46.5,41.3,73,44,22,29.90,29.77,16,4,16,0.00
2013-8-7,89.5,74.3,58.6,51.2,41.1,32.3,52,32,16,29.85,29.75,14,4,14,0.00
2013-8-8,87.5,73.2,57.1,51.2,43.4,35.1,53,35,23,29.87,29.73,18,4,18,0.00
2013-8-9,88.2,73.3,57.1,52.2,46.3,41.5,59,39,26,29.81,29.68,26,6,26,0.00
2013-8-10,89.1,73.5,54.0,54.1,48.9,41.8,68,44,26,29.84,29.71,14,4,14,0.00
2013-8-11,86.1,71.3,59.6,56.0,49.8,42.6,72,48,31,29.88,29.78,30,5,30,0.00
2013-8-12,86.8,71.6,54.3,57.4,49.4,38.6,80,49,23,29.91,29.80,33,5,33,0.02
2013-8-13,87.2,71.8,54.1,53.5,47.4,42.9,70,44,23,29.97,29.85,13,3,13,0.00
2013-8-14,90.7,74.8,58.6,49.9,46.0,41.9,60,39,19,29.88,29.72,20,7,20,0.00
2013-8-15,91.7,76.0,56.5,50.9,46.4,42.9,61,37,22,29.87,29.71,15,4,15,0.00
2013-8-16,87.5,74.1,60.9,55.5,50.6,45.4,59,45,30,29.89,29.77,15,4,15,0.00
2013-8-17,86.5,71.4,56.6,58.5,52.9,48.8,81,54,34,29.94,29.82,16,4,16,0.01
2013-8-18,85.3,70.7,54.7,52.3,47.6,42.8,72,46,26,29.99,29.86,16,4,16,0.00
2013-8-19,86.6,69.4,51.0,50.5,45.0,40.1,70,44,26,29.97,29.82,20,4,20,0.00
2013-8-20,82.3,67.4,53.3,48.1,42.5,33.0,67,43,24,29.98,29.85,15,4,15,0.00
2013-8-21,87.5,66.6,45.1,43.8,36.4,30.6,58,35,17,30.01,29.86,13,4,13,0.00
2013-8-22,83.8,70.4,55.9,54.0,42.3,30.3,80,38,24,29.88,29.69,29,6,29,0.02
2013-8-23,81.8,66.8,53.2,57.9,51.9,43.4,89,61,39,29.80,29.69,27,5,27,0.01
2013-8-24,85.8,66.8,52.3,55.1,47.9,43.3,76,53,32,29.80,29.65,21,4,21,0.00
2013-8-25,83.3,67.9,52.0,51.7,47.6,42.1,83,50,32,29.90,29.67,18,4,18,0.01
2013-8-26,82.9,64.2,48.1,55.2,49.1,44.1,92,62,32,29.93,29.77,20,5,20,0.03
2013-8-27,81.6,67.8,53.7,51.9,47.1,43.3,74,50,31,29.91,29.69,16,4,16,0.00
2013-8-28,89.0,72.5,58.2,57.9,49.0,42.3,66,45,25,29.82,29.63,28,8,28,0.00
2013-8-29,88.5,70.4,58.0,60.0,47.8,42.1,65,46,26,29.95,29.72,18,4,18,0.01
2013-8-30,81.2,67.2,54.8,53.6,49.5,44.4,72,54,37,30.07,29.92,18,4,18,0.00
2013-8-31,86.9,66.8,50.3,52.1,46.3,41.3,75,51,29,30.03,29.80,16,4,16,0.00
2013-9-1,92.0,72.3,56.3,51.4,45.0,40.6,59,39,23,29.81,29.68,18,4,18,0.00
2013-9-2,83.6,71.5,65.7,53.2,47.8,38.6,60,44,30,29.81,29.64,15,4,15,0.00
2013-9-3,74.5,67.6,62.8,60.9,56.0,51.4,78,67,55,29.96,29.77,17,7,17,0.01
2013-9-4,91.3,72.7,59.9,61.0,56.3,52.5,82,59,34,29.93,29.81,20,4,20,0.11
2013-9-5,78.5,64.2,57.5,62.7,57.1,47.5,95,79,38,29.97,29.69,38,11,38,0.18
2013-9-6,68.4,58.6,54.1,55.8,51.2,47.3,92,77,57,30.08,29.86,13,3,13,0.00
2013-9-7,75.8,61.1,46.1,53.7,49.3,43.6,92,68,40,30.10,29.93,13,2,13,0.00
2013-9-8,70.3,59.4,50.4,50.1,48.1,44.8,85,67,47,30.02,29.92,23,5,23,0.00
2013-9-9,81.2,63.8,50.5,53.1,48.3,45.1,84,60,34,30.00,29.89,14,4,14,0.00
2013-9-10,85.0,66.4,52.0,51.5,45.4,39.8,79,51,24,29.98,29.86,15,5,15,0.00
2013-9-11,87.5,72.3,54.1,48.3,45.2,41.3,68,41,23,29.97,29.83,20,8,20,0.00
2013-9-12,92.2,74.9,61.3,51.3,46.2,41.9,53,38,23,29.89,29.71,16,6,16,0.00
2013-9-13,89.3,76.1,66.3,53.7,50.0,47.3,52,41,27,29.76,29.63,14,4,14,0.00
2013-9-14,85.1,72.1,57.9,52.5,47.7,42.3,68,44,23,29.79,29.66,28,9,28,0.00
2013-9-15,85.7,73.5,61.4,51.7,46.8,41.8,55,40,27,29.74,29.54,52,12,52,0.00
2013-9-16,73.7,62.7,54.5,55.2,50.0,44.6,92,65,42,29.81,29.59,27,5,27,0.00
2013-9-17,64.3,52.3,44.5,49.0,45.6,39.3,96,79,56,29.78,29.62,44,6,44,0.25
2013-9-18,58.9,49.1,41.2,46.2,41.5,36.1,91,76,50,30.13,29.73,25,10,25,0.02
2013-9-19,66.6,52.1,38.2,43.6,38.3,34.3,89,62,35,30.18,29.89,21,8,21,0.00
2013-9-20,79.3,61.4,44.5,40.5,36.2,27.2,70,44,16,29.91,29.46,25,11,25,0.00
2013-9-21,65.4,56.4,49.3,44.3,41.0,36.4,74,57,41,29.69,29.48,20,4,20,0.00
2013-9-22,61.6,51.6,46.9,46.8,43.5,40.6,92,75,51,29.76,29.61,17,4,17,0.08
2013-9-23,61.1,51.5,43.5,44.0,40.8,36.6,88,68,46,29.95,29.74,29,7,29,0.00
2013-9-24,53.9,46.3,41.7,48.3,43.5,40.1,95,90,77,29.90,29.76,15,3,15,0.59
2013-9-25,46.0,42.6,40.1,44.1,40.8,38.6,95,93,88,29.84,29.76,12,2,12,0.23
2013-9-26,54.6,45.6,40.8,46.4,39.8,32.6,96,82,49,30.05,29.84,15,2,15,0.04
2013-9-27,52.8,44.6,36.7,42.4,38.6,33.1,90,80,58,30.08,29.94,20,4,20,0.03
2013-9-28,60.1,51.3,44.3,46.2,43.2,40.6,90,75,55,29.94,29.48,31,13,31,0.09
2013-9-29,60.9,46.3,42.4,47.1,40.1,35.7,93,80,52,29.76,29.45,36,12,36,0.15
2013-9-30,51.4,46.2,41.0,43.8,37.0,31.4,93,71,51,29.95,29.50,37,16,37,0.27
2013-10-1,56.4,43.3,33.4,44.0,37.3,30.2,93,80,50,30.19,29.94,23,3,23,0.05
2013-10-2,52.0,39.3,29.6,38.8,33.4,26.9,94,80,55,30.23,29.99,14,5,14,0.07
2013-10-3,51.2,40.2,34.4,40.8,35.9,30.8,94,85,61,30.44,30.00,20,6,20,0.04
2013-10-4,55.2,40.1,28.5,42.3,32.6,24.5,90,76,47,30.56,30.42,12,3,12,0.21
2013-10-5,59.9,45.2,32.2,37.8,32.1,26.4,85,62,41,30.50,30.29,13,5,13,0.00
2013-10-6,71.0,51.9,35.3,39.5,32.1,28.3,77,51,22,30.28,29.91,17,7,17,0.00
2013-10-7,59.0,48.5,38.1,39.5,34.1,29.2,77,59,38,29.95,29.86,33,6,33,0.00
2013-10-8,44.5,40.2,37.0,40.2,35.5,30.1,93,83,70,30.00,29.92,16,4,16,0.08
2013-10-9,55.3,40.2,32.0,44.7,36.1,30.5,96,87,56,30.08,29.92,10,2,10,0.00
2013-10-10,51.5,42.6,36.8,41.1,36.8,34.2,92,80,58,30.00,29.86,13,2,13,0.00
2013-10-11,50.9,44.2,38.8,42.0,36.6,33.8,87,75,60,30.12,29.98,7,2,7,0.00
2013-10-12,51.4,41.6,36.2,42.0,36.7,33.3,94,83,64,30.13,30.01,12,3,12,0.00
2013-10-13,54.2,40.7,31.8,42.4,35.8,26.8,96,84,59,30.35,30.10,15,4,15,0.00
2013-10-14,51.0,36.4,30.2,36.3,29.2,24.9,85,76,55,30.41,30.29,9,3,9,0.00
2013-10-15,55.6,45.5,36.4,40.4,34.7,28.4,82,67,50,30.41,30.17,13,4,13,0.00
2013-10-16,57.9,43.5,34.5,37.0,31.9,28.0,81,65,40,30.22,30.10,18,4,18,0.00
2013-10-17,57.9,42.9,31.4,39.4,32.2,26.4,84,67,47,30.34,30.14,16,3,16,0.00
2013-10-18,43.2,33.4,28.9,35.5,28.7,24.8,92,83,73,30.39,30.29,6,3,6,0.00
2013-10-19,64.1,49.2,35.0,41.1,35.3,29.1,80,60,39,30.35,30.08,10,3,10,0.00
2013-10-20,61.4,45.0,31.7,40.8,34.6,28.3,88,69,44,30.22,30.10,17,4,17,0.00
2013-10-21,48.7,48.7,48.7,37.1,37.1,37.1,64,64,64,30.19,30.19,0,0,0,0.00
2013-10-22,66.0,53.2,38.0,44.2,38.1,31.1,87,59,33,30.24,30.09,12,4,12,0.00
2013-10-23,63.6,48.7,38.2,42.2,34.8,29.2,82,60,33,30.17,30.06,12,4,12,0.00
2013-10-24,66.7,48.9,34.4,45.1,36.8,27.1,86,64,43,30.16,30.03,9,4,9,0.00
2013-10-25,70.5,49.2,35.5,46.0,37.3,29.3,84,66,33,30.30,30.07,9,2,9,0.00
2013-10-26,67.0,47.6,36.3,45.4,37.2,29.9,84,69,45,30.33,30.05,10,2,10,0.00
2013-10-27,51.9,42.3,33.2,41.3,36.3,30.5,92,80,54,30.05,29.68,26,6,26,0.00
2013-10-28,42.2,37.6,27.6,30.6,20.8,16.6,68,51,42,29.91,29.74,40,25,40,0.00
2013-10-29,47.7,32.2,21.9,26.0,19.7,14.1,77,61,40,30.11,29.90,16,4,16,0.00
2013-10-30,51.1,35.8,22.4,30.5,23.8,16.8,82,63,43,30.18,30.03,20,4,20,0.00
2013-10-31,43.8,39.7,31.9,41.0,34.5,22.4,92,82,60,30.21,30.07,14,5,14,0.02
2013-11-1,53.2,43.4,36.3,39.4,36.3,32.9,93,77,51,30.32,29.98,12,5,12,0.00
2013-11-2,47.7,41.8,35.6,41.6,33.7,23.3,92,73,53,29.99,29.68,43,16,43,0.10
2013-11-3,35.9,32.3,28.0,31.1,26.7,23.0,93,80,61,30.08,29.85,23,8,23,0.08
2013-11-4,37.9,29.2,23.1,33.9,26.0,19.6,94,88,73,30.29,30.06,17,5,17,0.04
2013-11-5,35.5,28.9,21.9,32.5,26.1,18.1,95,89,81,30.31,30.21,17,6,17,0.05
2013-11-6,40.9,36.6,33.3,38.1,34.3,31.2,94,91,85,30.40,30.26,16,5,16,0.03
2013-11-7,47.4,41.2,36.4,42.8,37.2,31.6,95,86,73,30.27,29.79,36,12,36,0.48
2013-11-8,41.1,37.9,32.6,35.4,32.1,28.5,87,80,73,30.22,29.94,23,9,23,0.04
2013-11-9,41.1,36.1,29.8,37.1,32.4,27.4,93,86,79,30.27,30.15,17,6,17,0.00
2013-11-10,48.2,41.1,37.0,43.9,37.6,32.9,93,87,78,30.23,30.13,7,2,7,0.00
2013-11-11,54.6,43.4,34.4,44.2,37.3,31.8,93,80,61,30.35,30.21,14,7,14,0.00
2013-11-12,51.6,43.6,37.8,43.9,38.2,31.9,93,81,69,30.36,30.20,16,4,16,0.03
2013-11-13,50.7,40.4,33.9,42.9,36.3,30.9,96,86,63,30.40,30.27,20,4,20,0.01
2013-11-14,45.2,35.9,31.6,37.7,32.5,28.5,100,88,73,30.28,29.95,14,3,14,0.00
2013-11-15,39.6,33.6,29.6,31.4,29.4,26.8,95,85,63,29.97,29.42,27,9,27,0.00
2013-11-16,36.9,33.4,31.7,32.4,28.6,24.6,100,83,70,29.74,29.30,34,18,34,0.03
2013-11-17,40.7,36.1,31.9,33.0,29.1,26.3,92,76,64,30.03,29.75,27,12,27,0.01
2013-11-18,40.7,36.1,32.8,33.8,29.7,26.6,86,78,69,30.03,29.79,20,4,20,0.02
2013-11-19,47.2,42.0,35.6,40.2,37.4,33.4,94,84,70,29.81,29.67,21,10,21,0.27
2013-11-20,35.6,26.1,18.8,33.4,17.8,8.3,92,71,55,30.50,29.81,24,8,24,0.09
2013-11-21,33.9,21.6,14.1,23.4,14.3,7.2,88,73,59,30.79,30.50,12,3,12,0.01
2013-11-22,32.8,24.3,17.1,24.2,17.9,12.9,92,77,59,30.85,30.68,12,5,12,0.00
2013-11-23,36.7,27.2,20.1,25.8,20.7,15.2,92,77,59,30.68,30.38,14,5,14,0.00
2013-11-24,43.9,29.7,20.4,30.4,23.5,15.9,89,78,54,30.42,30.31,9,3,9,0.00
2013-11-25,44.1,34.1,24.6,31.7,26.4,20.0,86,74,60,30.51,30.38,13,5,13,0.00
2013-11-26,49.4,35.3,28.2,35.0,27.9,22.6,84,75,51,30.38,30.18,7,2,7,0.00
2013-11-27,43.3,34.1,27.7,34.5,28.2,22.3,88,79,70,30.23,30.12,12,3,12,0.00
2013-11-28,48.6,33.2,26.2,35.7,27.9,21.9,92,81,58,30.25,30.14,7,2,7,0.00
2013-11-29,42.7,33.1,24.8,34.6,29.2,21.8,92,85,70,30.35,30.22,12,3,12,0.01
2013-11-30,42.7,37.1,34.2,36.6,34.5,31.8,95,90,77,30.33,30.19,18,3,18,0.05
2013-12-1,46.1,42.5,37.5,43.0,39.2,34.3,95,88,76,30.19,29.69,36,15,36,0.76
2013-12-2,45.4,31.0,22.7,40.5,27.6,20.3,94,88,71,29.95,29.63,43,13,43,0.35
2013-12-3,23.8,16.9,8.1,22.1,11.0,-0.7,93,78,64,30.34,29.95,23,11,23,0.00
2013-12-4,21.6,7.9,0.2,11.8,0.8,-4.9,85,73,55,30.49,30.32,18,4,18,0.00
2013-12-5,10.9,4.8,0.2,5.8,0.3,-4.5,92,81,76,30.49,30.38,9,3,9,0.00
2013-12-6,12.1,6.9,1.0,9.6,2.2,-3.7,92,81,70,30.41,30.24,16,9,16,0.00
2013-12-7,17.7,2.8,-8.6,5.5,-4.5,-13.4,83,72,52,30.56,30.21,15,5,15,0.00
2013-12-8,7.3,-0.0,-9.0,2.7,-4.3,-14.1,86,82,76,30.75,30.52,9,3,9,0.00
2013-12-9,19.6,11.5,5.2,16.1,8.4,0.6,90,87,80,30.70,30.48,12,4,12,0.00
2013-12-10,26.5,21.8,17.6,21.5,17.6,10.4,91,83,72,30.55,30.47,17,4,17,0.00
2013-12-11,35.0,25.6,21.7,24.9,19.1,16.1,85,76,65,30.54,30.41,17,5,17,0.00
2013-12-12,34.4,29.6,23.1,27.0,22.3,17.9,90,74,64,30.42,30.16,14,5,14,0.01
2013-12-13,37.4,31.2,27.4,35.4,29.7,25.1,95,94,88,30.48,30.20,7,2,7,0.00
2013-12-14,39.2,36.5,33.4,33.7,31.1,28.5,90,81,68,30.51,30.35,24,6,24,0.21
2013-12-15,42.6,37.3,33.4,33.5,29.3,24.5,87,73,58,30.38,30.28,10,4,10,0.06
2013-12-16,42.9,32.7,25.1,32.9,27.2,21.1,100,81,65,30.49,30.38,13,3,13,0.00
2013-12-17,49.2,36.6,28.0,32.0,25.6,21.0,79,65,48,30.40,29.95,18,4,18,0.00
2013-12-18,43.5,34.4,27.5,31.1,27.6,24.8,94,77,53,30.04,29.88,15,2,15,0.00
2013-12-19,30.4,20.6,14.8,25.9,17.1,11.9,94,86,64,30.33,29.94,18,4,18,0.00
2013-12-20,29.0,21.2,10.3,27.7,18.6,7.5,95,90,78,30.23,29.72,16,5,16,0.00
2013-12-21,33.0,28.7,24.7,32.0,27.5,23.0,96,95,94,30.15,29.83,12,3,12,0.03
2013-12-22,34.4,32.7,31.5,33.6,31.8,30.5,97,97,96,30.34,30.13,13,2,13,0.29
2013-12-23,45.2,38.3,32.5,38.0,33.6,26.4,97,83,72,30.38,30.05,46,14,46,0.32
2013-12-24,41.2,29.6,21.2,31.1,23.6,16.8,90,78,65,30.65,30.36,23,5,23,0.01
2013-12-25,32.6,26.4,17.8,26.1,21.4,13.7,87,81,74,30.65,30.48,12,5,12,0.00
2013-12-26,42.9,33.0,24.9,31.9,24.7,19.6,84,71,55,30.50,30.33,13,4,13,0.00
2013-12-27,48.7,35.1,26.3,29.8,24.2,18.6,75,64,45,30.36,30.10,17,5,17,0.00
2013-12-28,45.4,27.9,17.4,33.8,24.8,15.2,94,88,62,30.60,30.20,15,4,15,0.00
2013-12-29,31.0,25.4,18.9,26.4,22.1,15.9,92,87,79,30.57,30.34,13,5,13,0.00
2013-12-30,36.8,31.5,25.0,34.8,27.7,21.5,95,86,75,30.40,30.16,18,4,18,0.11
2013-12-31,40.6,34.8,26.1,35.3,31.0,23.3,95,86,72,30.41,30.12,26,6,26,0.01
2014-1-1,35.9,29.7,23.1,32.4,26.7,20.9,94,88,81,30.52,30.39,12,4,12,0.00
2014-1-2,46.6,35.0,26.5,34.2,29.6,24.4,93,81,63,30.40,29.82,30,7,30,0.01